Freeman, Virginia
Current Conditions -  °F | °C
As of 7:35 AM on Thursday 18 Dec 2014 (Local Time) from KLVL Reporting Station
Clear Clear  
Wind Chill: 28°   Ceiling: Unl
Heat Index: 28°   Visibility: 10mi
Dew Point: 27°   Wind: 0mph
Humidity: 97%   Direction: NA
Pressure: 30.16"   Gusts: NA
Location:  36.78°N, 77.71°W
Report Text: KLVL 181235Z AUTO 00000KT 10SM CLR M02/M03 A3016 RMK AO1 T10241028
Loading
Personal Weather Stations






























Interactive Weather Map New forecast layout! Learn more

10-Day Weather Forecast

Advertisements
Track Severe Weather on mobile